Time,TemperatureF,DewpointF,PressureIn,WindDirection,WindDirectionDegrees,WindSpeedMPH,WindSpeedGustMPH,Humidity,HourlyPrecipIn,Conditions,Clouds,dailyrainin,SoftwareType,DateUTC
2013-01-26 00:03:00,27.0,26.0,-100.00,East,90,9.0,19.0,99,0.00,,,0.01,,2013-01-26 05:03:00,
2013-01-26 00:12:00,27.0,26.0,-100.00,East,90,9.0,19.0,99,0.00,,,0.01,,2013-01-26 05:12:00,
2013-01-26 00:23:00,27.0,26.0,-100.00,East,90,4.0,21.0,95,0.00,,,0.01,,2013-01-26 05:23:00,
2013-01-26 00:33:00,27.0,26.0,-100.00,East,90,4.0,21.0,95,0.00,,,0.01,,2013-01-26 05:33:00,
2013-01-26 00:42:00,28.0,26.0,-100.00,ESE,110,9.0,18.0,94,0.00,,,0.01,,2013-01-26 05:42:00,
2013-01-26 00:53:00,28.0,26.0,-100.00,ESE,110,9.0,18.0,94,0.00,,,0.01,,2013-01-26 05:53:00,
2013-01-26 01:03:00,28.0,26.0,-100.00,East,100,6.0,18.0,92,0.00,,,0.01,,2013-01-26 06:03:00,
2013-01-26 01:12:00,28.0,26.0,-100.00,East,100,6.0,18.0,92,0.00,,,0.01,,2013-01-26 06:12:00,
2013-01-26 01:21:00,28.0,26.0,-100.00,NE,50,7.0,16.0,91,0.00,,,0.01,,2013-01-26 06:21:00,
2013-01-26 01:32:00,28.0,26.0,-100.00,NE,50,7.0,16.0,91,0.00,,,0.01,,2013-01-26 06:32:00,
2013-01-26 01:42:00,28.0,26.0,-100.00,ESE,120,8.0,13.0,90,0.00,,,0.01,,2013-01-26 06:42:00,
2013-01-26 01:52:00,28.0,26.0,-100.00,ESE,120,8.0,13.0,90,0.00,,,0.01,,2013-01-26 06:52:00,
2013-01-26 02:02:00,27.0,23.0,-100.00,West,275,0.0,3.0,86,0.00,,,0.01,,2013-01-26 07:02:00,
2013-01-26 02:12:00,27.0,23.0,-100.00,West,275,0.0,3.0,86,0.00,,,0.01,,2013-01-26 07:12:00,
2013-01-26 02:22:00,19.0,18.0,-100.00,West,260,0.0,2.0,96,0.00,,,0.01,,2013-01-26 07:22:00,
2013-01-26 02:33:00,19.0,18.0,-100.00,West,260,0.0,2.0,96,0.00,,,0.01,,2013-01-26 07:33:00,
2013-01-26 02:42:00,24.0,24.0,-100.00,SE,125,0.0,10.0,99,0.00,,,0.01,,2013-01-26 07:42:00,
2013-01-26 02:52:00,24.0,24.0,-100.00,SE,125,0.0,10.0,99,0.00,,,0.01,,2013-01-26 07:52:00,
2013-01-26 03:02:00,28.0,25.0,-100.00,South,190,0.0,0.0,90,0.00,,,0.01,,2013-01-26 08:02:00,
2013-01-26 03:11:00,28.0,25.0,-100.00,South,190,0.0,0.0,90,0.00,,,0.01,,2013-01-26 08:11:00,
2013-01-26 03:22:00,29.0,24.0,-100.00,SSW,210,0.0,8.0,81,0.00,,,0.01,,2013-01-26 08:22:00,
2013-01-26 03:32:00,29.0,24.0,-100.00,SSW,210,0.0,8.0,81,0.00,,,0.01,,2013-01-26 08:32:00,
2013-01-26 03:42:00,30.0,23.0,-100.00,South,185,0.0,5.0,77,0.00,,,0.01,,2013-01-26 08:42:00,
2013-01-26 03:54:00,30.0,23.0,-100.00,South,185,0.0,5.0,77,0.00,,,0.01,,2013-01-26 08:54:00,
2013-01-26 04:02:00,29.0,23.0,-100.00,ESE,115,0.0,5.0,77,0.00,,,0.01,,2013-01-26 09:02:00,
2013-01-26 04:11:00,29.0,23.0,-100.00,ESE,115,0.0,5.0,77,0.00,,,0.01,,2013-01-26 09:11:00,
2013-01-26 04:22:00,29.0,22.0,-100.00,East,80,0.0,0.0,77,0.00,,,0.01,,2013-01-26 09:22:00,
2013-01-26 04:32:00,29.0,22.0,-100.00,East,80,0.0,0.0,77,0.00,,,0.01,,2013-01-26 09:32:00,
2013-01-26 04:42:00,28.0,22.0,-100.00,East,85,5.0,11.0,77,0.00,,,0.01,,2013-01-26 09:42:00,
2013-01-26 04:52:00,28.0,22.0,-100.00,East,85,5.0,11.0,77,0.00,,,0.01,,2013-01-26 09:52:00,
2013-01-26 05:01:00,27.0,21.0,-100.00,ENE,60,4.0,13.0,77,0.00,,,0.01,,2013-01-26 10:01:00,
2013-01-26 05:12:00,27.0,21.0,-100.00,ENE,60,4.0,13.0,77,0.00,,,0.01,,2013-01-26 10:12:00,
2013-01-26 05:21:00,26.0,20.0,-100.00,ENE,60,7.0,13.0,78,0.00,,,0.01,,2013-01-26 10:21:00,
2013-01-26 05:32:00,23.0,20.0,-100.00,NE,50,0.0,5.0,88,0.00,,,0.01,,2013-01-26 10:32:00,
2013-01-26 05:42:00,23.0,20.0,-100.00,NE,50,0.0,5.0,88,0.00,,,0.01,,2013-01-26 10:42:00,
2013-01-26 05:52:00,23.0,20.0,-100.00,NE,50,0.0,5.0,88,0.00,,,0.01,,2013-01-26 10:52:00,
2013-01-26 06:02:00,23.0,20.0,-100.00,East,100,0.0,5.0,89,0.00,,,0.01,,2013-01-26 11:02:00,
2013-01-26 06:12:00,23.0,20.0,-100.00,East,100,0.0,5.0,89,0.00,,,0.01,,2013-01-26 11:12:00,
2013-01-26 06:22:00,21.0,19.0,-100.00,SE,135,0.0,0.0,93,0.00,,,0.01,,2013-01-26 11:22:00,
2013-01-26 06:32:00,21.0,19.0,-100.00,SE,135,0.0,0.0,93,0.00,,,0.01,,2013-01-26 11:32:00,
2013-01-26 06:42:00,22.0,21.0,-100.00,ESE,110,0.0,0.0,96,0.00,,,0.01,,2013-01-26 11:42:00,
2013-01-26 06:52:00,21.0,20.0,-100.00,NE,50,0.0,0.0,96,0.00,,,0.01,,2013-01-26 11:52:00,
2013-01-26 07:02:00,21.0,20.0,-100.00,NE,50,0.0,0.0,96,0.00,,,0.01,,2013-01-26 12:02:00,
2013-01-26 07:12:00,21.0,20.0,-100.00,NE,50,0.0,0.0,96,0.00,,,0.01,,2013-01-26 12:12:00,
2013-01-26 07:23:00,21.0,21.0,-100.00,ENE,75,0.0,0.0,99,0.00,,,0.01,,2013-01-26 12:23:00,
2013-01-26 07:33:00,21.0,21.0,-100.00,ENE,75,0.0,0.0,99,0.00,,,0.01,,2013-01-26 12:33:00,
2013-01-26 07:42:00,23.0,23.0,-100.00,ESE,105,0.0,0.0,99,0.00,,,0.01,,2013-01-26 12:42:00,
2013-01-26 07:53:00,23.0,23.0,-100.00,ESE,105,0.0,0.0,99,0.00,,,0.01,,2013-01-26 12:53:00,
2013-01-26 08:04:00,24.0,22.0,-100.00,SE,125,0.0,0.0,93,0.00,,,0.01,,2013-01-26 13:04:00,
2013-01-26 08:12:00,24.0,22.0,-100.00,SE,125,0.0,0.0,93,0.00,,,0.01,,2013-01-26 13:12:00,
2013-01-26 08:22:00,25.0,22.0,-100.00,East,85,0.0,0.0,88,0.00,,,0.01,,2013-01-26 13:22:00,
2013-01-26 08:33:00,25.0,22.0,-100.00,East,85,0.0,0.0,88,0.00,,,0.01,,2013-01-26 13:33:00,
2013-01-26 08:42:00,25.0,21.0,-100.00,NE,45,0.0,0.0,84,0.00,,,0.01,,2013-01-26 13:42:00,
2013-01-26 08:53:00,25.0,21.0,-100.00,NE,45,0.0,0.0,84,0.00,,,0.01,,2013-01-26 13:53:00,
2013-01-26 09:03:00,26.0,20.0,-100.00,ESE,110,0.0,0.0,81,0.00,,,0.01,,2013-01-26 14:03:00,
2013-01-26 09:12:00,26.0,20.0,-100.00,ESE,110,0.0,0.0,81,0.00,,,0.01,,2013-01-26 14:12:00,
2013-01-26 09:22:00,26.0,20.0,-100.00,ENE,70,0.0,0.0,78,0.00,,,0.01,,2013-01-26 14:22:00,
2013-01-26 09:32:00,26.0,20.0,-100.00,ENE,70,0.0,0.0,78,0.00,,,0.01,,2013-01-26 14:32:00,
2013-01-26 09:43:00,27.0,20.0,-100.00,ENE,70,0.0,0.0,75,0.00,,,0.01,,2013-01-26 14:43:00,
2013-01-26 09:53:00,27.0,20.0,-100.00,ENE,70,0.0,0.0,75,0.00,,,0.01,,2013-01-26 14:53:00,
2013-01-26 10:03:00,28.0,20.0,-100.00,East,100,0.0,10.0,72,0.00,,,0.01,,2013-01-26 15:03:00,
2013-01-26 10:12:00,28.0,20.0,-100.00,East,100,0.0,10.0,72,0.00,,,0.01,,2013-01-26 15:12:00,
2013-01-26 10:22:00,29.0,19.0,-100.00,ESE,105,1.0,11.0,67,0.00,,,0.01,,2013-01-26 15:22:00,
2013-01-26 10:33:00,29.0,19.0,-100.00,ESE,105,1.0,11.0,67,0.00,,,0.01,,2013-01-26 15:33:00,
2013-01-26 10:43:00,29.0,19.0,-100.00,ESE,120,0.0,11.0,66,0.00,,,0.01,,2013-01-26 15:43:00,
2013-01-26 10:53:00,29.0,19.0,-100.00,ESE,120,0.0,11.0,66,0.00,,,0.01,,2013-01-26 15:53:00,
2013-01-26 11:03:00,30.0,19.0,-100.00,ESE,115,0.0,11.0,64,0.00,,,0.01,,2013-01-26 16:03:00,
2013-01-26 11:13:00,30.0,19.0,-100.00,ESE,115,0.0,11.0,64,0.00,,,0.01,,2013-01-26 16:13:00,
2013-01-26 11:22:00,30.0,19.0,-100.00,East,100,0.0,11.0,64,0.00,,,0.01,,2013-01-26 16:22:00,
2013-01-26 11:33:00,30.0,19.0,-100.00,East,100,0.0,11.0,64,0.00,,,0.01,,2013-01-26 16:33:00,
2013-01-26 11:43:00,30.0,19.0,-100.00,East,100,1.0,11.0,64,0.00,,,0.01,,2013-01-26 16:43:00,
2013-01-26 11:53:00,30.0,19.0,-100.00,East,100,1.0,11.0,64,0.00,,,0.01,,2013-01-26 16:53:00,
2013-01-26 12:03:00,30.0,19.0,-100.00,ESE,120,5.0,13.0,62,0.00,,,0.01,,2013-01-26 17:03:00,
2013-01-26 12:13:00,30.0,19.0,-100.00,ESE,120,5.0,13.0,62,0.00,,,0.01,,2013-01-26 17:13:00,
2013-01-26 12:23:00,30.0,18.0,-100.00,ENE,65,6.0,15.0,61,0.00,,,0.01,,2013-01-26 17:23:00,
2013-01-26 12:33:00,30.0,18.0,-100.00,ENE,65,6.0,15.0,61,0.00,,,0.01,,2013-01-26 17:33:00,
2013-01-26 12:42:00,28.0,20.0,-100.00,SW,220,0.0,10.0,71,0.00,,,0.01,,2013-01-26 17:42:00,
2013-01-26 12:53:00,28.0,20.0,-100.00,SW,220,0.0,10.0,71,0.00,,,0.01,,2013-01-26 17:53:00,
2013-01-26 13:03:00,27.0,20.0,-100.00,WNW,290,0.0,3.0,74,0.00,,,0.01,,2013-01-26 18:03:00,
2013-01-26 13:12:00,27.0,20.0,-100.00,WNW,290,0.0,3.0,74,0.00,,,0.01,,2013-01-26 18:12:00,
2013-01-26 13:22:00,27.0,21.0,-100.00,WSW,255,0.0,8.0,77,0.00,,,0.01,,2013-01-26 18:22:00,
2013-01-26 13:33:00,27.0,21.0,-100.00,WSW,255,0.0,8.0,77,0.00,,,0.01,,2013-01-26 18:33:00,
2013-01-26 13:42:00,28.0,22.0,-100.00,WNW,285,0.0,6.0,76,0.00,,,0.01,,2013-01-26 18:42:00,
2013-01-26 13:53:00,28.0,22.0,-100.00,WNW,285,0.0,6.0,76,0.00,,,0.01,,2013-01-26 18:53:00,
2013-01-26 14:03:00,29.0,22.0,-100.00,West,260,0.0,8.0,76,0.00,,,0.01,,2013-01-26 19:03:00,
2013-01-26 14:12:00,29.0,22.0,-100.00,West,260,0.0,8.0,76,0.00,,,0.01,,2013-01-26 19:12:00,
2013-01-26 14:22:00,31.0,22.0,-100.00,NNE,30,0.0,13.0,68,0.00,,,0.01,,2013-01-26 19:22:00,
2013-01-26 14:33:00,31.0,22.0,-100.00,NNE,30,0.0,13.0,68,0.00,,,0.01,,2013-01-26 19:33:00,
2013-01-26 14:42:00,31.0,22.0,-100.00,WNW,285,0.0,10.0,69,0.00,,,0.01,,2013-01-26 19:42:00,
2013-01-26 14:53:00,31.0,22.0,-100.00,WNW,285,0.0,10.0,69,0.00,,,0.01,,2013-01-26 19:53:00,
2013-01-26 15:02:00,33.0,20.0,-100.00,East,80,5.0,15.0,59,0.00,,,0.00,,2013-01-26 20:02:00,
2013-01-26 15:12:00,33.0,20.0,-100.00,East,80,5.0,15.0,59,0.00,,,0.00,,2013-01-26 20:12:00,
2013-01-26 15:22:00,34.0,20.0,-100.00,SSE,155,5.0,18.0,56,0.00,,,0.00,,2013-01-26 20:22:00,
2013-01-26 15:32:00,34.0,20.0,-100.00,SSE,155,5.0,18.0,56,0.00,,,0.00,,2013-01-26 20:32:00,
2013-01-26 15:42:00,34.0,19.0,-100.00,SE,125,4.0,15.0,53,0.00,,,0.00,,2013-01-26 20:42:00,
2013-01-26 15:52:00,34.0,19.0,-100.00,SE,125,4.0,15.0,53,0.00,,,0.00,,2013-01-26 20:52:00,
2013-01-26 16:03:00,34.0,19.0,-100.00,East,90,7.0,19.0,53,0.00,,,0.00,,2013-01-26 21:03:00,
2013-01-26 16:12:00,34.0,19.0,-100.00,East,90,7.0,19.0,53,0.00,,,0.00,,2013-01-26 21:12:00,
2013-01-26 16:23:00,34.0,19.0,-100.00,East,85,0.0,15.0,53,0.00,,,0.00,,2013-01-26 21:23:00,
2013-01-26 16:32:00,34.0,19.0,-100.00,East,85,0.0,15.0,53,0.00,,,0.00,,2013-01-26 21:32:00,
2013-01-26 16:43:00,36.0,19.0,-100.00,ESE,120,5.0,11.0,50,0.00,,,0.00,,2013-01-26 21:43:00,
2013-01-26 16:52:00,36.0,19.0,-100.00,ESE,120,5.0,11.0,50,0.00,,,0.00,,2013-01-26 21:52:00,
2013-01-26 17:02:00,35.0,18.0,-100.00,East,85,8.0,15.0,50,0.00,,,0.00,,2013-01-26 22:02:00,
2013-01-26 17:12:00,35.0,18.0,-100.00,East,85,8.0,15.0,50,0.00,,,0.00,,2013-01-26 22:12:00,
2013-01-26 17:22:00,34.0,18.0,-100.00,East,100,2.0,13.0,51,0.00,,,0.00,,2013-01-26 22:22:00,
2013-01-26 17:32:00,34.0,18.0,-100.00,East,100,2.0,13.0,51,0.00,,,0.00,,2013-01-26 22:32:00,
2013-01-26 17:42:00,31.0,19.0,-100.00,NW,305,7.0,13.0,61,0.00,,,0.00,,2013-01-26 22:42:00,
2013-01-26 17:52:00,31.0,19.0,-100.00,NW,305,7.0,13.0,61,0.00,,,0.00,,2013-01-26 22:52:00,
2013-01-26 18:02:00,31.0,20.0,-100.00,WNW,290,0.0,11.0,63,0.00,,,0.00,,2013-01-26 23:02:00,
2013-01-26 18:12:00,31.0,20.0,-100.00,WNW,290,0.0,11.0,63,0.00,,,0.00,,2013-01-26 23:12:00,
2013-01-26 18:22:00,31.0,19.0,-100.00,East,90,2.0,10.0,63,0.00,,,0.00,,2013-01-26 23:22:00,
2013-01-26 18:32:00,29.0,19.0,-100.00,SSW,210,0.0,0.0,67,0.00,,,0.00,,2013-01-26 23:32:00,
2013-01-26 18:42:00,29.0,19.0,-100.00,SSW,210,0.0,0.0,67,0.00,,,0.00,,2013-01-26 23:42:00,
2013-01-26 18:52:00,29.0,19.0,-100.00,SSW,210,0.0,0.0,67,0.00,,,0.00,,2013-01-26 23:52:00,
2013-01-26 19:02:00,29.0,19.0,-100.00,East,95,0.0,0.0,67,0.00,,,0.00,,2013-01-27 00:02:00,
2013-01-26 19:12:00,29.0,19.0,-100.00,East,95,0.0,0.0,67,0.00,,,0.00,,2013-01-27 00:12:00,
2013-01-26 19:22:00,27.0,19.0,-100.00,NE,55,0.0,0.0,69,0.00,,,0.00,,2013-01-27 00:22:00,
2013-01-26 19:32:00,27.0,19.0,-100.00,NE,55,0.0,0.0,69,0.00,,,0.00,,2013-01-27 00:32:00,
2013-01-26 19:42:00,27.0,19.0,-100.00,ESE,110,0.0,0.0,72,0.00,,,0.00,,2013-01-27 00:42:00,
2013-01-26 19:52:00,27.0,19.0,-100.00,ESE,110,0.0,0.0,72,0.00,,,0.00,,2013-01-27 00:52:00,
2013-01-26 20:02:00,26.0,19.0,-100.00,East,90,0.0,0.0,75,0.00,,,0.00,,2013-01-27 01:02:00,
2013-01-26 20:11:00,26.0,19.0,-100.00,East,90,0.0,0.0,75,0.00,,,0.00,,2013-01-27 01:11:00,
2013-01-26 20:22:00,26.0,19.0,-100.00,East,80,0.0,0.0,77,0.00,,,0.00,,2013-01-27 01:22:00,
2013-01-26 20:32:00,26.0,19.0,-100.00,East,80,0.0,0.0,77,0.00,,,0.00,,2013-01-27 01:32:00,
2013-01-26 20:42:00,25.0,20.0,-100.00,East,100,0.0,0.0,80,0.00,,,0.00,,2013-01-27 01:42:00,
2013-01-26 20:52:00,25.0,20.0,-100.00,East,100,0.0,0.0,80,0.00,,,0.00,,2013-01-27 01:52:00,
2013-01-26 21:02:00,25.0,20.0,-100.00,ESE,110,0.0,0.0,83,0.00,,,0.00,,2013-01-27 02:02:00,
2013-01-26 21:12:00,25.0,20.0,-100.00,ESE,110,0.0,0.0,83,0.00,,,0.00,,2013-01-27 02:12:00,
2013-01-26 21:22:00,24.0,20.0,-100.00,East,90,0.0,10.0,84,0.00,,,0.00,,2013-01-27 02:22:00,
2013-01-26 21:32:00,24.0,20.0,-100.00,East,90,0.0,10.0,84,0.00,,,0.00,,2013-01-27 02:32:00,
2013-01-26 21:42:00,24.0,20.0,-100.00,East,80,5.0,8.0,85,0.00,,,0.00,,2013-01-27 02:42:00,
2013-01-26 21:52:00,24.0,20.0,-100.00,East,80,5.0,8.0,85,0.00,,,0.00,,2013-01-27 02:52:00,
2013-01-26 22:02:00,24.0,20.0,-100.00,East,85,0.0,10.0,83,0.00,,,0.00,,2013-01-27 03:02:00,
2013-01-26 22:12:00,24.0,20.0,-100.00,East,85,0.0,10.0,83,0.00,,,0.00,,2013-01-27 03:12:00,
2013-01-26 22:21:00,24.0,20.0,-100.00,ENE,75,3.0,11.0,84,0.00,,,0.00,,2013-01-27 03:21:00,
2013-01-26 22:32:00,24.0,20.0,-100.00,ENE,75,3.0,11.0,84,0.00,,,0.00,,2013-01-27 03:32:00,
2013-01-26 22:42:00,24.0,19.0,-100.00,East,80,7.0,10.0,82,0.00,,,0.00,,2013-01-27 03:42:00,
2013-01-26 22:52:00,24.0,19.0,-100.00,East,80,7.0,10.0,82,0.00,,,0.00,,2013-01-27 03:52:00,
2013-01-26 23:02:00,24.0,18.0,-100.00,ENE,70,7.0,11.0,80,0.00,,,0.00,,2013-01-27 04:02:00,
2013-01-26 23:12:00,24.0,18.0,-100.00,ENE,70,7.0,11.0,80,0.00,,,0.00,,2013-01-27 04:12:00,
2013-01-26 23:22:00,24.0,18.0,-100.00,East,90,6.0,11.0,78,0.00,,,0.00,,2013-01-27 04:22:00,
2013-01-26 23:32:00,24.0,18.0,-100.00,East,90,6.0,11.0,78,0.00,,,0.00,,2013-01-27 04:32:00,
2013-01-26 23:42:00,24.0,17.0,-100.00,East,80,7.0,13.0,77,0.00,,,0.00,,2013-01-27 04:42:00,
2013-01-26 23:52:00,24.0,17.0,-100.00,East,80,7.0,13.0,77,0.00,,,0.00,,2013-01-27 04:52:00,